New Albany, Kansas
Current Conditions -  °F | °C
As of 11:52 AM on Tuesday 21 Oct 2014 (Local Time) from KCNU Reporting Station
Clear Clear  
Wind Chill: 71°   Ceiling: Unl
Heat Index: 71°   Visibility: 10mi
Dew Point: 57°   Wind: 7mph
Humidity: 61%   Direction: 130°SE
Pressure: 30.13"   Gusts: NA
Location:  37.57°N, 95.94°W
Report Text: KCNU 211652Z AUTO 13006KT 10SM CLR 22/14 A3013 RMK AO2 SLP197 T02170139
Loading
Personal Weather Stations






























Interactive Weather Map
Tropical Storm Tracking
New forecast layout! Learn more

10-Day Weather Forecast

Advertisements
Track Severe Weather on mobile